createdAt,value
2023-01-10T00:00:38.183Z,96.20
2023-01-10T00:03:08.129Z,96.20
2023-01-10T00:05:36.236Z,96.60
2023-01-10T00:08:03.554Z,97.10
2023-01-10T00:10:31.335Z,97.50
2023-01-10T00:13:16.437Z,97.50
2023-01-10T00:15:43.215Z,97.30
2023-01-10T00:18:10.082Z,96.90
2023-01-10T00:20:36.766Z,96.70
2023-01-10T00:23:03.701Z,96.50
2023-01-10T00:25:33.276Z,96.50
2023-01-10T00:28:04.821Z,96.50
2023-01-10T00:30:33.702Z,96.80
2023-01-10T00:33:00.592Z,97.50
2023-01-10T00:35:27.296Z,98.00
2023-01-10T00:37:58.668Z,98.00
2023-01-10T00:40:25.332Z,98.00
2023-01-10T00:43:10.681Z,98.30
2023-01-10T00:45:37.205Z,98.50
2023-01-10T00:48:03.973Z,98.60
2023-01-10T00:50:30.672Z,98.80
2023-01-10T00:52:57.370Z,99.10
2023-01-10T00:55:23.993Z,99.10
2023-01-10T00:57:50.627Z,99.10
2023-01-10T01:00:17.383Z,99.20
2023-01-10T01:02:44.099Z,99.30
2023-01-10T01:05:10.873Z,99.40
2023-01-10T01:07:37.560Z,99.60
2023-01-10T01:10:22.982Z,99.80
2023-01-10T01:12:49.583Z,99.90
2023-01-10T01:15:16.336Z,99.90
2023-01-10T01:17:42.954Z,99.90
2023-01-10T01:20:10.855Z,99.90
2023-01-10T01:22:37.663Z,99.90
2023-01-10T01:25:04.868Z,99.90
2023-01-10T01:27:31.996Z,99.90
2023-01-10T01:29:58.619Z,99.90
2023-01-10T01:32:25.320Z,99.90
2023-01-10T01:34:52.239Z,99.90
2023-01-10T01:37:19.684Z,99.90
2023-01-10T01:39:46.767Z,99.90
2023-01-10T01:42:33.737Z,99.90
2023-01-10T01:45:09.612Z,99.90
2023-01-10T01:47:38.889Z,99.90
2023-01-10T01:50:06.013Z,99.90
2023-01-10T01:52:34.734Z,99.90
2023-01-10T01:55:03.271Z,99.90
2023-01-10T01:57:32.499Z,99.90
2023-01-10T02:00:02.101Z,99.90
2023-01-10T02:02:32.337Z,99.90
2023-01-10T02:05:09.477Z,99.90
2023-01-10T02:07:43.668Z,99.90
2023-01-10T02:10:28.682Z,99.90
2023-01-10T02:13:00.043Z,99.90
2023-01-10T02:15:26.781Z,99.90
2023-01-10T02:17:53.735Z,99.90
2023-01-10T02:20:22.446Z,99.90
2023-01-10T02:23:04.178Z,99.80
2023-01-10T02:25:56.770Z,99.40
2023-01-10T02:28:39.080Z,98.60
2023-01-10T02:31:26.979Z,98.40
2023-01-10T02:34:19.429Z,98.30
2023-01-10T02:37:04.165Z,98.00
2023-01-10T02:39:40.865Z,97.80
2023-01-10T02:42:11.878Z,97.80
2023-01-10T02:44:38.445Z,97.70
2023-01-10T02:47:07.292Z,97.40
2023-01-10T02:49:48.564Z,97.20
2023-01-10T02:52:23.446Z,97.00
2023-01-10T02:54:55.806Z,96.70
2023-01-10T02:57:50.408Z,96.50
2023-01-10T03:00:42.094Z,96.10
2023-01-10T03:03:16.355Z,96.00
2023-01-10T03:05:52.146Z,95.90
2023-01-10T03:08:27.862Z,95.90
2023-01-10T03:11:00.654Z,95.80
2023-01-10T03:13:33.052Z,95.90
2023-01-10T03:16:01.553Z,95.70
2023-01-10T03:18:36.211Z,95.50
2023-01-10T03:21:05.929Z,95.50
2023-01-10T03:23:34.981Z,95.50
2023-01-10T03:26:03.472Z,95.50
2023-01-10T03:28:46.323Z,95.00
2023-01-10T03:31:23.060Z,95.10
2023-01-10T03:33:50.176Z,94.40
2023-01-10T03:36:41.169Z,94.40
2023-01-10T03:39:34.085Z,94.40
2023-01-10T03:42:23.436Z,94.40
2023-01-10T03:45:09.464Z,94.60
2023-01-10T03:47:45.434Z,94.60
2023-01-10T03:50:17.503Z,94.40
2023-01-10T03:52:44.692Z,94.50
2023-01-10T03:55:14.531Z,94.40
2023-01-10T03:57:48.870Z,94.20
2023-01-10T04:00:16.666Z,94.20
2023-01-10T04:02:44.271Z,94.50
2023-01-10T04:05:12.155Z,94.80
2023-01-10T04:07:39.077Z,95.00
2023-01-10T04:10:06.735Z,94.80
2023-01-10T04:12:33.476Z,95.10
2023-01-10T04:15:01.422Z,94.00
2023-01-10T04:17:28.052Z,93.70
2023-01-10T04:19:55.017Z,93.70
2023-01-10T04:22:21.666Z,93.60
2023-01-10T04:24:51.124Z,93.80
2023-01-10T04:27:18.252Z,94.00
2023-01-10T04:29:44.910Z,94.30
2023-01-10T04:32:11.645Z,94.60
2023-01-10T04:34:38.442Z,94.60
2023-01-10T04:37:05.413Z,95.20
2023-01-10T04:39:32.106Z,95.30
2023-01-10T04:41:58.822Z,95.20
2023-01-10T04:44:25.468Z,95.30
2023-01-10T04:46:52.110Z,96.00
2023-01-10T04:49:18.917Z,96.60
2023-01-10T04:51:45.555Z,97.10
2023-01-10T04:54:12.242Z,97.10
2023-01-10T04:56:39.881Z,97.20
2023-01-10T04:59:06.665Z,97.20
2023-01-10T05:01:35.451Z,97.40
2023-01-10T05:04:03.212Z,97.50
2023-01-10T05:06:30.061Z,97.70
2023-01-10T05:08:57.100Z,97.80
2023-01-10T05:11:24.117Z,97.80
2023-01-10T05:13:51.100Z,97.80
2023-01-10T05:16:17.858Z,97.80
2023-01-10T05:18:45.071Z,98.00
2023-01-10T05:21:13.639Z,98.10
2023-01-10T05:23:40.713Z,98.00
2023-01-10T05:26:10.150Z,97.90
2023-01-10T05:28:37.552Z,98.00
2023-01-10T05:31:07.386Z,97.80
2023-01-10T05:33:34.283Z,97.70
2023-01-10T05:36:05.480Z,97.40
2023-01-10T05:38:33.064Z,97.30
2023-01-10T05:41:00.538Z,97.20
2023-01-10T05:43:27.944Z,97.40
2023-01-10T05:45:54.693Z,97.70
2023-01-10T05:48:21.547Z,97.80
2023-01-10T05:50:50.318Z,97.80
2023-01-10T05:53:17.710Z,98.00
2023-01-10T05:55:44.531Z,98.20
2023-01-10T05:58:11.459Z,98.30
2023-01-10T06:00:39.828Z,98.50
2023-01-10T06:03:06.726Z,98.60
2023-01-10T06:05:33.510Z,98.70
2023-01-10T06:08:00.194Z,98.70
2023-01-10T06:10:27.285Z,98.60
2023-01-10T06:12:55.118Z,98.60
2023-01-10T06:15:21.843Z,98.50
2023-01-10T06:17:48.576Z,98.50
2023-01-10T06:20:15.624Z,98.40
2023-01-10T06:22:43.134Z,98.50
2023-01-10T06:25:13.469Z,98.60
2023-01-10T06:27:44.032Z,98.60
2023-01-10T06:30:13.381Z,98.50
2023-01-10T06:32:41.002Z,98.60
2023-01-10T06:35:07.983Z,98.60
2023-01-10T06:37:34.614Z,98.70
2023-01-10T06:40:01.238Z,98.80
2023-01-10T06:42:27.905Z,99.10
2023-01-10T06:44:54.577Z,99.30
2023-01-10T06:47:21.269Z,99.40
2023-01-10T06:49:47.977Z,99.40
2023-01-10T06:52:14.648Z,99.40
2023-01-10T06:54:41.633Z,99.40
2023-01-10T06:57:08.679Z,99.40
2023-01-10T06:59:35.346Z,99.40
2023-01-10T07:02:02.196Z,99.30
2023-01-10T07:04:28.973Z,99.10
2023-01-10T07:06:55.671Z,99.00
2023-01-10T07:09:22.405Z,98.90
2023-01-10T07:11:49.032Z,98.80
2023-01-10T07:14:15.680Z,98.80
2023-01-10T07:16:42.378Z,98.80
2023-01-10T07:19:09.897Z,98.60
2023-01-10T07:21:36.590Z,98.60
2023-01-10T07:24:03.268Z,98.60
2023-01-10T07:26:30.007Z,98.40
2023-01-10T07:28:56.895Z,98.30
2023-01-10T07:31:24.483Z,98.10
2023-01-10T07:33:52.234Z,98.10
2023-01-10T07:36:19.624Z,98.20
2023-01-10T07:38:46.534Z,98.20
2023-01-10T07:41:13.179Z,98.20
2023-01-10T07:43:39.973Z,98.20
2023-01-10T07:46:12.120Z,98.30
2023-01-10T07:48:41.808Z,98.40
2023-01-10T07:51:08.537Z,98.20
2023-01-10T07:53:35.257Z,98.20
2023-01-10T07:56:03.523Z,98.10
2023-01-10T07:58:30.653Z,98.00
2023-01-10T08:01:03.005Z,98.10
2023-01-10T08:03:30.329Z,98.10
2023-01-10T08:06:01.945Z,97.90
2023-01-10T08:08:29.212Z,98.00
2023-01-10T08:10:56.365Z,97.90
2023-01-10T08:13:23.170Z,97.80
2023-01-10T08:15:51.703Z,97.50
2023-01-10T08:18:20.186Z,97.40
2023-01-10T08:20:49.554Z,96.70
2023-01-10T08:23:16.905Z,97.00
2023-01-10T08:25:43.909Z,96.50
2023-01-10T08:28:10.654Z,96.00
2023-01-10T08:30:38.350Z,96.60
2023-01-10T08:33:06.667Z,95.10
2023-01-10T08:35:42.209Z,95.00
2023-01-10T08:38:09.966Z,94.40
2023-01-10T08:40:37.133Z,93.70
2023-01-10T08:43:06.705Z,93.80
2023-01-10T08:45:34.123Z,94.30
2023-01-10T08:48:01.713Z,94.50
2023-01-10T08:50:28.450Z,94.50
2023-01-10T08:52:58.377Z,94.50
2023-01-10T08:55:26.089Z,94.50
2023-01-10T08:57:52.797Z,94.50
2023-01-10T09:00:19.972Z,93.70
2023-01-10T09:02:46.709Z,92.60
2023-01-10T09:05:26.436Z,91.80
2023-01-10T09:07:59.039Z,91.50
2023-01-10T09:10:26.483Z,90.90
2023-01-10T09:12:55.970Z,90.00
2023-01-10T09:15:24.868Z,90.80
2023-01-10T09:17:59.752Z,91.50
2023-01-10T09:20:28.108Z,92.10
2023-01-10T09:22:56.682Z,92.50
2023-01-10T09:25:23.861Z,93.10
2023-01-10T09:28:01.146Z,93.20
2023-01-10T09:30:29.044Z,93.40
2023-01-10T09:32:56.754Z,93.90
2023-01-10T09:35:24.773Z,94.80
2023-01-10T09:37:55.000Z,94.90
2023-01-10T09:40:32.899Z,95.10
2023-01-10T09:43:33.113Z,95.00
2023-01-10T09:46:06.402Z,94.90
2023-01-10T09:48:35.859Z,95.00
2023-01-10T09:51:23.768Z,94.50
2023-01-10T09:53:55.770Z,94.00
2023-01-10T09:56:29.352Z,93.70
2023-01-10T09:58:57.331Z,93.40
2023-01-10T10:01:32.625Z,94.20
2023-01-10T10:04:07.378Z,92.50
2023-01-10T10:06:34.637Z,92.00
2023-01-10T10:09:04.153Z,91.80
2023-01-10T10:11:50.091Z,91.00
2023-01-10T10:14:22.897Z,91.50
2023-01-10T10:16:56.833Z,89.70
2023-01-10T10:20:00.090Z,88.80
2023-01-10T10:22:57.684Z,89.10
2023-01-10T10:25:42.311Z,88.60
2023-01-10T10:28:37.351Z,87.20
2023-01-10T10:31:50.470Z,88.00
2023-01-10T10:34:38.722Z,86.90
2023-01-10T10:37:25.849Z,85.40
2023-01-10T10:40:02.167Z,83.10
2023-01-10T10:42:33.336Z,81.90
2023-01-10T10:45:04.942Z,82.60
2023-01-10T10:47:34.932Z,83.20
2023-01-10T10:50:33.612Z,83.80
2023-01-10T10:53:02.727Z,84.00
2023-01-10T10:55:32.982Z,84.00
2023-01-10T10:58:01.253Z,82.10
2023-01-10T11:00:29.697Z,83.50
2023-01-10T11:03:02.641Z,84.70
2023-01-10T11:05:41.525Z,82.70
2023-01-10T11:08:15.964Z,83.20
2023-01-10T11:10:55.158Z,80.80
2023-01-10T11:13:35.416Z,81.10
2023-01-10T11:16:05.567Z,80.60
2023-01-10T11:18:32.995Z,82.40
2023-01-10T11:21:22.035Z,81.60
2023-01-10T11:23:52.732Z,80.80
2023-01-10T11:26:34.357Z,81.10
2023-01-10T11:29:15.261Z,80.60
2023-01-10T11:31:42.462Z,78.50
2023-01-10T11:34:22.497Z,80.90
2023-01-10T11:37:04.076Z,79.00
2023-01-10T11:39:32.102Z,80.30
2023-01-10T11:42:24.440Z,80.20
2023-01-10T11:44:51.176Z,80.50
2023-01-10T11:47:20.788Z,78.80
2023-01-10T11:49:49.659Z,80.10
2023-01-10T11:52:25.931Z,79.40
2023-01-10T11:54:58.351Z,79.50
2023-01-10T11:57:26.651Z,80.10
2023-01-10T12:00:02.138Z,79.90
2023-01-10T12:02:33.464Z,80.60
2023-01-10T12:05:06.243Z,80.40
2023-01-10T12:07:52.855Z,79.60
2023-01-10T12:10:22.332Z,80.70
2023-01-10T12:12:58.248Z,82.40
2023-01-10T12:15:30.170Z,82.80
2023-01-10T12:17:59.584Z,83.90
2023-01-10T12:20:28.857Z,84.20
2023-01-10T12:23:03.468Z,83.60
2023-01-10T12:25:40.230Z,84.20
2023-01-10T12:28:18.164Z,84.10
2023-01-10T12:30:50.189Z,85.00
2023-01-10T12:33:22.468Z,84.30
2023-01-10T12:36:01.948Z,85.80
2023-01-10T12:38:59.335Z,85.90
2023-01-10T12:41:54.171Z,85.10
2023-01-10T12:44:28.458Z,84.40
2023-01-10T12:47:19.373Z,84.80
2023-01-10T12:49:57.551Z,85.50
2023-01-10T12:52:33.480Z,85.20
2023-01-10T12:55:00.785Z,84.00
2023-01-10T12:57:46.383Z,84.40
2023-01-10T13:00:32.760Z,83.50
2023-01-10T13:03:10.253Z,81.90
2023-01-10T13:05:37.126Z,83.70
2023-01-10T13:08:08.023Z,83.00
2023-01-10T13:10:41.984Z,81.80
2023-01-10T13:13:29.732Z,81.60
2023-01-10T13:16:37.142Z,83.10
2023-01-10T13:19:09.552Z,80.60
2023-01-10T13:21:38.788Z,80.50
2023-01-10T13:24:05.613Z,81.20
2023-01-10T13:26:58.710Z,81.70
2023-01-10T13:29:29.526Z,81.30
2023-01-10T13:32:00.417Z,80.70
2023-01-10T13:34:33.884Z,81.70
2023-01-10T13:37:04.743Z,81.40
2023-01-10T13:39:36.613Z,82.00
2023-01-10T13:42:21.985Z,81.70
2023-01-10T13:45:23.004Z,80.40
2023-01-10T13:47:54.535Z,79.60
2023-01-10T13:50:44.467Z,81.00
2023-01-10T13:53:12.883Z,81.00
2023-01-10T13:55:39.629Z,80.50
2023-01-10T13:58:15.606Z,79.50
2023-01-10T14:01:09.191Z,79.90
2023-01-10T14:03:50.275Z,79.60
2023-01-10T14:06:41.009Z,80.10
2023-01-10T14:09:33.051Z,79.60
2023-01-10T14:12:02.587Z,79.90
2023-01-10T14:14:33.531Z,78.90
2023-01-10T14:17:19.720Z,79.20
2023-01-10T14:19:50.624Z,78.90
2023-01-10T14:22:32.669Z,78.90
2023-01-10T14:25:01.280Z,79.00
2023-01-10T14:27:46.817Z,79.70
2023-01-10T14:30:24.333Z,79.70
2023-01-10T14:32:56.771Z,79.40
2023-01-10T14:35:32.722Z,79.90
2023-01-10T14:38:04.938Z,78.60
2023-01-10T14:40:50.748Z,79.10
2023-01-10T14:43:20.303Z,78.70
2023-01-10T14:46:03.215Z,78.70
2023-01-10T14:48:31.589Z,78.80
2023-01-10T14:51:21.040Z,78.00
2023-01-10T14:53:58.607Z,78.10
2023-01-10T14:56:28.266Z,76.90
2023-01-10T14:58:54.942Z,76.80
2023-01-10T15:01:28.327Z,76.20
2023-01-10T15:03:56.949Z,75.90
2023-01-10T15:06:25.901Z,76.20
2023-01-10T15:09:00.135Z,76.50
2023-01-10T15:11:27.864Z,75.80
2023-01-10T15:14:00.411Z,75.80
2023-01-10T15:16:28.631Z,74.70
2023-01-10T15:18:56.614Z,75.30
2023-01-10T15:21:24.325Z,75.00
2023-01-10T15:23:51.100Z,74.90
2023-01-10T15:26:25.255Z,73.70
2023-01-10T15:29:14.699Z,73.70
2023-01-10T15:31:42.829Z,73.20
2023-01-10T15:34:15.016Z,72.40
2023-01-10T15:37:01.707Z,72.00
2023-01-10T15:39:35.521Z,72.30
2023-01-10T15:42:06.650Z,71.90
2023-01-10T15:44:35.358Z,71.90
2023-01-10T15:47:02.069Z,73.00
2023-01-10T15:49:29.560Z,73.40
2023-01-10T15:51:57.584Z,73.00
2023-01-10T15:54:24.193Z,73.70
2023-01-10T15:56:52.227Z,73.40
2023-01-10T15:59:36.939Z,73.50
2023-01-10T16:02:16.090Z,74.90
2023-01-10T16:04:44.658Z,74.00
2023-01-10T16:07:28.929Z,74.40
2023-01-10T16:10:00.883Z,74.30
2023-01-10T16:12:59.347Z,74.80
2023-01-10T16:15:28.388Z,75.40
2023-01-10T16:17:55.096Z,74.60
2023-01-10T16:20:26.828Z,74.40
2023-01-10T16:22:54.048Z,74.90
2023-01-10T16:25:34.008Z,74.70
2023-01-10T16:28:00.867Z,75.10
2023-01-10T16:30:32.942Z,75.50
2023-01-10T16:33:02.719Z,75.20
2023-01-10T16:35:29.344Z,75.50
2023-01-10T16:37:57.428Z,75.80
2023-01-10T16:40:28.727Z,76.30
2023-01-10T16:43:14.887Z,76.60
2023-01-10T16:45:41.642Z,77.10
2023-01-10T16:48:09.881Z,77.00
2023-01-10T16:50:36.530Z,77.90
2023-01-10T16:53:06.114Z,77.90
2023-01-10T16:55:53.436Z,77.90
2023-01-10T16:58:21.060Z,78.50
2023-01-10T17:00:52.300Z,78.50
2023-01-10T17:03:22.277Z,79.30
2023-01-10T17:05:49.422Z,79.50
2023-01-10T17:08:21.717Z,79.20
2023-01-10T17:10:53.507Z,79.30
2023-01-10T17:13:29.308Z,78.90
2023-01-10T17:15:56.377Z,79.20
2023-01-10T17:18:24.836Z,78.90
2023-01-10T17:20:52.163Z,78.90
2023-01-10T17:23:18.824Z,79.50
2023-01-10T17:25:47.168Z,79.30
2023-01-10T17:28:13.942Z,79.40
2023-01-10T17:30:41.153Z,79.90
2023-01-10T17:33:10.871Z,79.70
2023-01-10T17:35:41.604Z,80.10
2023-01-10T17:38:13.544Z,79.70
2023-01-10T17:40:45.390Z,79.40
2023-01-10T17:43:14.328Z,79.90
2023-01-10T17:45:46.249Z,79.90
2023-01-10T17:48:16.110Z,80.00
2023-01-10T17:50:44.312Z,79.90
2023-01-10T17:53:11.692Z,79.50
2023-01-10T17:55:45.122Z,79.80
2023-01-10T17:58:11.862Z,80.00
2023-01-10T18:00:38.682Z,79.60
2023-01-10T18:03:05.827Z,79.40
2023-01-10T18:05:34.142Z,79.80
2023-01-10T18:08:05.876Z,80.00
2023-01-10T18:10:33.725Z,79.70
2023-01-10T18:13:02.582Z,79.60
2023-01-10T18:15:30.418Z,80.10
2023-01-10T18:17:57.838Z,79.70
2023-01-10T18:20:24.769Z,80.10
2023-01-10T18:23:10.026Z,79.50
2023-01-10T18:25:36.725Z,79.70
2023-01-10T18:28:03.468Z,79.50
2023-01-10T18:30:30.116Z,79.50
2023-01-10T18:32:57.138Z,79.90
2023-01-10T18:35:23.939Z,79.80
2023-01-10T18:37:50.643Z,80.50
2023-01-10T18:40:17.678Z,81.30
2023-01-10T18:42:44.468Z,80.70
2023-01-10T18:45:11.195Z,82.10
2023-01-10T18:47:37.868Z,82.60
2023-01-10T18:50:05.246Z,82.50
2023-01-10T18:52:32.008Z,82.40
2023-01-10T18:55:00.343Z,83.40
2023-01-10T18:57:32.552Z,82.70
2023-01-10T18:59:59.342Z,82.40
2023-01-10T19:02:26.186Z,82.00
2023-01-10T19:04:52.962Z,81.40
2023-01-10T19:07:19.754Z,82.20
2023-01-10T19:09:46.425Z,81.10
2023-01-10T19:12:13.175Z,82.00
2023-01-10T19:14:39.849Z,80.80
2023-01-10T19:17:06.806Z,80.10
2023-01-10T19:19:33.534Z,80.40
2023-01-10T19:22:00.335Z,80.30
2023-01-10T19:24:29.615Z,80.10
2023-01-10T19:26:56.885Z,79.70
2023-01-10T19:29:24.054Z,79.00
2023-01-10T19:31:50.897Z,79.20
2023-01-10T19:34:17.644Z,78.90
2023-01-10T19:36:45.473Z,79.20
2023-01-10T19:39:12.959Z,78.40
2023-01-10T19:41:40.239Z,79.30
2023-01-10T19:44:14.968Z,78.80
2023-01-10T19:46:43.933Z,78.90
2023-01-10T19:49:19.562Z,78.40
2023-01-10T19:51:51.171Z,77.60
2023-01-10T19:54:18.341Z,76.60
2023-01-10T19:56:44.976Z,76.70
2023-01-10T19:59:14.624Z,76.70
2023-01-10T20:01:41.787Z,76.20
2023-01-10T20:04:08.495Z,75.40
2023-01-10T20:06:38.061Z,74.70
2023-01-10T20:09:06.065Z,75.10
2023-01-10T20:11:42.783Z,74.70
2023-01-10T20:14:27.711Z,75.50
2023-01-10T20:16:54.403Z,75.60
2023-01-10T20:19:22.646Z,75.70
2023-01-10T20:21:49.759Z,74.90
2023-01-10T20:24:20.744Z,75.60
2023-01-10T20:26:49.216Z,76.30
2023-01-10T20:29:17.094Z,77.80
2023-01-10T20:31:47.165Z,77.10
2023-01-10T20:34:14.093Z,76.50
2023-01-10T20:36:41.253Z,77.60
2023-01-10T20:39:08.404Z,77.40
2023-01-10T20:41:37.214Z,78.10
2023-01-10T20:44:04.034Z,77.10
2023-01-10T20:46:33.031Z,77.00
2023-01-10T20:49:02.382Z,76.80
2023-01-10T20:51:32.983Z,77.10
2023-01-10T20:54:00.170Z,76.70
2023-01-10T20:56:29.174Z,76.00
2023-01-10T20:58:56.897Z,77.50
2023-01-10T21:01:34.239Z,77.40
2023-01-10T21:04:05.576Z,77.50
2023-01-10T21:06:33.241Z,78.20
2023-01-10T21:09:00.475Z,79.30
2023-01-10T21:11:27.527Z,81.90
2023-01-10T21:13:54.243Z,83.30
2023-01-10T21:16:22.193Z,84.80
2023-01-10T21:18:50.399Z,86.30
2023-01-10T21:21:19.491Z,86.10
2023-01-10T21:23:46.178Z,86.10
2023-01-10T21:26:14.819Z,87.00
2023-01-10T21:28:46.397Z,87.30
2023-01-10T21:31:18.389Z,86.80
2023-01-10T21:33:45.369Z,87.20
2023-01-10T21:36:13.398Z,88.50
2023-01-10T21:38:41.056Z,87.30
2023-01-10T21:41:11.679Z,88.60
2023-01-10T21:43:38.727Z,89.40
2023-01-10T21:46:05.539Z,88.90
2023-01-10T21:48:32.540Z,90.30
2023-01-10T21:50:59.248Z,89.70
2023-01-10T21:53:25.977Z,89.90
2023-01-10T21:55:52.742Z,89.70
2023-01-10T21:58:19.592Z,90.40
2023-01-10T22:00:46.275Z,90.20
2023-01-10T22:03:12.945Z,90.70
2023-01-10T22:05:39.703Z,91.00
2023-01-10T22:08:06.314Z,91.10
2023-01-10T22:10:32.974Z,91.00
2023-01-10T22:12:59.597Z,91.80
2023-01-10T22:15:27.099Z,91.80
2023-01-10T22:17:53.841Z,91.90
2023-01-10T22:20:20.567Z,92.10
2023-01-10T22:22:49.659Z,92.50
2023-01-10T22:25:16.386Z,92.80
2023-01-10T22:27:45.143Z,92.60
2023-01-10T22:30:12.351Z,93.30
2023-01-10T22:32:39.093Z,93.40
2023-01-10T22:35:06.823Z,94.00
2023-01-10T22:37:33.452Z,94.40
2023-01-10T22:40:00.167Z,94.40
2023-01-10T22:42:27.158Z,94.30
2023-01-10T22:44:53.858Z,94.00
2023-01-10T22:47:20.511Z,94.10
2023-01-10T22:49:47.103Z,94.20
2023-01-10T22:52:13.772Z,94.00
2023-01-10T22:54:40.377Z,93.80
2023-01-10T22:57:07.709Z,93.90
2023-01-10T22:59:35.931Z,94.20
2023-01-10T23:02:02.778Z,94.30
2023-01-10T23:04:29.479Z,94.00
2023-01-10T23:06:56.772Z,94.30
2023-01-10T23:09:23.561Z,95.50
2023-01-10T23:11:50.246Z,95.60
2023-01-10T23:14:16.920Z,96.80
2023-01-10T23:16:44.607Z,97.40
2023-01-10T23:19:11.554Z,98.10
2023-01-10T23:21:38.281Z,98.70
2023-01-10T23:24:05.339Z,99.30
2023-01-10T23:26:32.004Z,99.50
2023-01-10T23:28:58.705Z,99.80
2023-01-10T23:31:29.313Z,99.90
2023-01-10T23:33:56.445Z,99.90
2023-01-10T23:36:23.961Z,99.60
2023-01-10T23:38:51.049Z,99.60
2023-01-10T23:41:20.988Z,99.60
2023-01-10T23:43:49.276Z,99.30
2023-01-10T23:46:16.029Z,99.10
2023-01-10T23:48:45.155Z,99.00
2023-01-10T23:51:12.586Z,98.90
2023-01-10T23:53:40.049Z,98.80
2023-01-10T23:56:09.423Z,98.80
2023-01-10T23:58:36.337Z,98.70
